createdAt,value
2022-08-28T00:00:31.453Z,99944.55
2022-08-28T00:03:08.372Z,99946.94
2022-08-28T00:05:39.856Z,99947.85
2022-08-28T00:08:10.149Z,99944.95
2022-08-28T00:10:40.199Z,99949.10
2022-08-28T00:13:13.842Z,99947.12
2022-08-28T00:15:41.938Z,99948.60
2022-08-28T00:18:09.917Z,99944.38
2022-08-28T00:20:38.905Z,99946.23
2022-08-28T00:23:07.209Z,99946.33
2022-08-28T00:25:35.916Z,99943.11
2022-08-28T00:28:08.770Z,99943.37
2022-08-28T00:30:43.758Z,99938.77
2022-08-28T00:33:16.507Z,99937.91
2022-08-28T00:35:44.643Z,99937.21
2022-08-28T00:38:13.437Z,99934.67
2022-08-28T00:40:44.759Z,99932.04
2022-08-28T00:43:27.039Z,99929.05
2022-08-28T00:45:54.835Z,99934.01
2022-08-28T00:48:22.601Z,99934.13
2022-08-28T00:51:09.472Z,99930.64
2022-08-28T00:53:37.711Z,99930.36
2022-08-28T00:56:12.298Z,99924.47
2022-08-28T00:58:45.174Z,99927.67
2022-08-28T01:01:14.922Z,99931.40
2022-08-28T01:03:43.328Z,99935.02
2022-08-28T01:06:14.879Z,99930.83
2022-08-28T01:08:50.684Z,99929.02
2022-08-28T01:11:20.451Z,99926.29
2022-08-28T01:13:49.237Z,99923.16
2022-08-28T01:16:19.544Z,99919.66
2022-08-28T01:18:49.369Z,99920.64
2022-08-28T01:21:37.605Z,99919.58
2022-08-28T01:24:10.402Z,99917.48
2022-08-28T01:26:38.579Z,99918.02
2022-08-28T01:29:08.697Z,99921.98
2022-08-28T01:31:38.133Z,99920.48
2022-08-28T01:34:07.445Z,99917.08
2022-08-28T01:36:35.591Z,99920.77
2022-08-28T01:39:12.778Z,99923.52
2022-08-28T01:41:42.736Z,99922.11
2022-08-28T01:44:10.606Z,99920.32
2022-08-28T01:46:41.962Z,99920.02
2022-08-28T01:49:12.048Z,99924.73
2022-08-28T01:51:41.440Z,99922.45
2022-08-28T01:54:10.845Z,99921.27
2022-08-28T01:56:42.406Z,99921.88
2022-08-28T01:59:12.977Z,99920.60
2022-08-28T02:01:42.690Z,99922.58
2022-08-28T02:04:11.951Z,99920.77
2022-08-28T02:06:41.340Z,99925.36
2022-08-28T02:09:13.517Z,99926.45
2022-08-28T02:11:46.587Z,99924.20
2022-08-28T02:14:15.990Z,99926.60
2022-08-28T02:16:44.140Z,99925.90
2022-08-28T02:19:12.341Z,99925.73
2022-08-28T02:21:40.861Z,99919.94
2022-08-28T02:24:09.152Z,99919.92
2022-08-28T02:26:38.373Z,99922.00
2022-08-28T02:29:06.766Z,99922.83
2022-08-28T02:31:34.592Z,99922.53
2022-08-28T02:34:02.396Z,99918.39
2022-08-28T02:36:30.913Z,99915.77
2022-08-28T02:38:59.789Z,99923.52
2022-08-28T02:41:27.929Z,99923.17
2022-08-28T02:43:55.696Z,99922.31
2022-08-28T02:46:23.562Z,99917.91
2022-08-28T02:48:51.429Z,99915.36
2022-08-28T02:51:20.218Z,99918.06
2022-08-28T02:53:48.126Z,99921.48
2022-08-28T02:56:16.778Z,99923.67
2022-08-28T02:58:44.804Z,99919.09
2022-08-28T03:01:15.070Z,99916.54
2022-08-28T03:03:43.477Z,99918.50
2022-08-28T03:06:12.756Z,99925.33
2022-08-28T03:08:44.840Z,99920.40
2022-08-28T03:11:13.102Z,99920.59
2022-08-28T03:13:42.531Z,99920.09
2022-08-28T03:16:10.570Z,99911.05
2022-08-28T03:18:38.987Z,99909.85
2022-08-28T03:21:07.231Z,99916.14
2022-08-28T03:23:35.945Z,99916.77
2022-08-28T03:26:07.631Z,99917.21
2022-08-28T03:28:39.773Z,99914.19
2022-08-28T03:31:09.458Z,99919.93
2022-08-28T03:33:38.250Z,99921.61
2022-08-28T03:36:13.020Z,99920.80
2022-08-28T03:38:42.054Z,99917.09
2022-08-28T03:41:11.893Z,99918.66
2022-08-28T03:43:40.213Z,99921.05
2022-08-28T03:46:12.114Z,99919.28
2022-08-28T03:48:42.194Z,99922.83
2022-08-28T03:51:16.489Z,99925.15
2022-08-28T03:53:46.258Z,99926.73
2022-08-28T03:56:19.259Z,99931.40
2022-08-28T03:58:47.921Z,99932.02
2022-08-28T04:01:15.812Z,99932.65
2022-08-28T04:03:44.494Z,99941.14
2022-08-28T04:06:13.097Z,99941.37
2022-08-28T04:08:40.981Z,99943.70
2022-08-28T04:11:10.115Z,99939.46
2022-08-28T04:13:42.137Z,99945.05
2022-08-28T04:16:13.038Z,99948.52
2022-08-28T04:18:43.152Z,99945.45
2022-08-28T04:21:15.009Z,99945.02
2022-08-28T04:23:45.128Z,99939.55
2022-08-28T04:26:16.683Z,99942.88
2022-08-28T04:28:45.937Z,99946.36
2022-08-28T04:31:15.054Z,99948.84
2022-08-28T04:33:43.306Z,99949.63
2022-08-28T04:36:17.373Z,99949.64
2022-08-28T04:38:45.703Z,99951.20
2022-08-28T04:41:15.651Z,99944.20
2022-08-28T04:43:44.627Z,99945.64
2022-08-28T04:46:14.936Z,99946.14
2022-08-28T04:48:43.435Z,99953.54
2022-08-28T04:51:14.229Z,99948.34
2022-08-28T04:53:42.927Z,99952.41
2022-08-28T04:56:13.882Z,99947.80
2022-08-28T04:58:43.521Z,99949.86
2022-08-28T05:01:21.180Z,99947.69
2022-08-28T05:03:54.959Z,99949.36
2022-08-28T05:06:26.764Z,99951.05
2022-08-28T05:09:00.812Z,99952.05
2022-08-28T05:11:34.373Z,99954.21
2022-08-28T05:14:05.054Z,99952.07
2022-08-28T05:16:39.754Z,99953.09
2022-08-28T05:19:07.746Z,99950.02
2022-08-28T05:21:35.528Z,99951.56
2022-08-28T05:24:04.796Z,99953.90
2022-08-28T05:26:33.950Z,99956.46
2022-08-28T05:29:04.413Z,99956.36
2022-08-28T05:31:34.395Z,99956.61
2022-08-28T05:34:03.494Z,99957.00
2022-08-28T05:36:36.551Z,99956.71
2022-08-28T05:39:07.538Z,99951.17
2022-08-28T05:41:36.852Z,99953.86
2022-08-28T05:44:08.123Z,99956.56
2022-08-28T05:46:37.894Z,99955.79
2022-08-28T05:49:10.092Z,99956.19
2022-08-28T05:51:41.063Z,99956.08
2022-08-28T05:54:09.797Z,99957.65
2022-08-28T05:56:40.532Z,99963.16
2022-08-28T05:59:10.275Z,99964.78
2022-08-28T06:01:41.764Z,99961.98
2022-08-28T06:04:15.947Z,99964.52
2022-08-28T06:06:44.807Z,99965.33
2022-08-28T06:09:16.072Z,99968.02
2022-08-28T06:11:46.099Z,99970.59
2022-08-28T06:14:18.068Z,99964.59
2022-08-28T06:16:53.093Z,99965.64
2022-08-28T06:19:23.198Z,99968.02
2022-08-28T06:21:55.424Z,99964.81
2022-08-28T06:24:24.579Z,99966.85
2022-08-28T06:26:52.749Z,99969.54
2022-08-28T06:29:24.345Z,99965.79
2022-08-28T06:31:56.010Z,99963.35
2022-08-28T06:34:24.545Z,99966.14
2022-08-28T06:36:54.173Z,99966.58
2022-08-28T06:39:23.321Z,99964.38
2022-08-28T06:41:51.177Z,99961.27
2022-08-28T06:44:20.885Z,99957.63
2022-08-28T06:46:51.676Z,99954.71
2022-08-28T06:49:20.162Z,99952.48
2022-08-28T06:51:48.049Z,99951.23
2022-08-28T06:54:22.208Z,99951.77
2022-08-28T06:56:52.434Z,99951.34
2022-08-28T06:59:20.574Z,99948.02
2022-08-28T07:01:49.013Z,99951.18
2022-08-28T07:04:17.069Z,99949.03
2022-08-28T07:06:47.058Z,99949.08
2022-08-28T07:09:16.282Z,99950.64
2022-08-28T07:11:49.034Z,99952.83
2022-08-28T07:14:17.287Z,99950.19
2022-08-28T07:16:45.136Z,99951.20
2022-08-28T07:19:13.833Z,99948.71
2022-08-28T07:21:44.650Z,99943.46
2022-08-28T07:28:18.175Z,99945.18
2022-08-28T07:30:46.261Z,99951.61
2022-08-28T07:33:14.459Z,99955.29
2022-08-28T07:35:45.225Z,99952.83
2022-08-28T07:38:13.071Z,99951.20
2022-08-28T07:40:41.080Z,99950.35
2022-08-28T07:43:27.556Z,99948.30
2022-08-28T07:46:05.407Z,99949.63
2022-08-28T07:48:35.438Z,99951.20
2022-08-28T07:51:05.160Z,99952.20
2022-08-28T07:53:36.496Z,99954.06
2022-08-28T07:56:05.347Z,99956.86
2022-08-28T07:58:33.742Z,99960.58
2022-08-28T08:01:01.603Z,99959.77
2022-08-28T08:03:31.560Z,99960.05
2022-08-28T08:06:03.030Z,99956.89
2022-08-28T08:08:32.123Z,99960.25
2022-08-28T08:11:10.711Z,99960.79
2022-08-28T08:13:39.588Z,99960.15
2022-08-28T08:16:12.690Z,99960.59
2022-08-28T08:18:42.554Z,99960.30
2022-08-28T08:21:14.073Z,99954.89
2022-08-28T08:23:42.231Z,99957.08
2022-08-28T08:26:13.900Z,99957.08
2022-08-28T08:28:42.571Z,99961.60
2022-08-28T08:31:14.464Z,99957.09
2022-08-28T08:33:44.882Z,99961.75
2022-08-28T08:36:14.808Z,99961.90
2022-08-28T08:38:42.767Z,99961.09
2022-08-28T08:41:21.931Z,99960.77
2022-08-28T08:43:57.312Z,99959.84
2022-08-28T08:46:46.247Z,99965.20
2022-08-28T08:49:19.237Z,99962.92
2022-08-28T08:52:11.484Z,99959.92
2022-08-28T08:54:45.110Z,99960.72
2022-08-28T08:57:15.166Z,99965.41
2022-08-28T08:59:43.010Z,99963.18
2022-08-28T09:02:18.448Z,99964.63
2022-08-28T09:05:04.338Z,99965.52
2022-08-28T09:07:52.653Z,99967.34
2022-08-28T09:10:21.184Z,99965.12
2022-08-28T09:13:06.898Z,99960.18
2022-08-28T09:15:40.160Z,99960.91
2022-08-28T09:18:20.938Z,99967.64
2022-08-28T09:20:55.576Z,99966.55
2022-08-28T09:23:24.704Z,99965.88
2022-08-28T09:26:01.817Z,99965.71
2022-08-28T09:28:35.865Z,99963.20
2022-08-28T09:31:08.934Z,99963.44
2022-08-28T09:33:42.256Z,99964.67
2022-08-28T09:36:33.631Z,99968.48
2022-08-28T09:39:07.485Z,99969.35
2022-08-28T09:42:00.933Z,99963.05
2022-08-28T09:44:28.815Z,99965.36
2022-08-28T09:46:56.664Z,99967.23
2022-08-28T09:49:30.029Z,99964.39
2022-08-28T09:52:02.136Z,99965.22
2022-08-28T09:54:35.481Z,99962.95
2022-08-28T09:57:04.042Z,99966.77
2022-08-28T09:59:31.807Z,99966.33
2022-08-28T10:02:31.657Z,99965.23
2022-08-28T10:05:16.658Z,99961.83
2022-08-28T10:07:58.123Z,99958.91
2022-08-28T10:10:41.815Z,99961.09
2022-08-28T10:13:17.632Z,99959.36
2022-08-28T10:16:24.654Z,99954.46
2022-08-28T10:19:02.694Z,99953.44
2022-08-28T10:21:37.157Z,99954.36
2022-08-28T10:24:07.655Z,99951.29
2022-08-28T10:26:55.543Z,99953.13
2022-08-28T10:29:30.076Z,99951.00
2022-08-28T10:32:19.813Z,99954.45
2022-08-28T10:34:50.469Z,99949.42
2022-08-28T10:37:52.597Z,99946.95
2022-08-28T10:40:32.850Z,99942.17
2022-08-28T10:43:11.535Z,99939.64
2022-08-28T10:45:40.306Z,99939.91
2022-08-28T10:48:15.534Z,99939.14
2022-08-28T10:50:55.225Z,99936.63
2022-08-28T10:53:29.927Z,99934.77
2022-08-28T10:56:07.547Z,99933.73
2022-08-28T10:58:39.480Z,99933.58
2022-08-28T11:01:11.993Z,99937.63
2022-08-28T11:03:46.585Z,99937.34
2022-08-28T11:06:21.229Z,99938.79
2022-08-28T11:08:59.626Z,99938.69
2022-08-28T11:11:45.080Z,99939.42
2022-08-28T11:14:25.190Z,99942.27
2022-08-28T11:16:56.405Z,99940.30
2022-08-28T11:19:33.589Z,99940.69
2022-08-28T11:22:11.004Z,99940.55
2022-08-28T11:24:44.163Z,99939.56
2022-08-28T11:27:27.489Z,99938.52
2022-08-28T11:30:11.038Z,99938.30
2022-08-28T11:32:56.983Z,99936.38
2022-08-28T11:35:30.726Z,99934.80
2022-08-28T11:37:58.636Z,99937.36
2022-08-28T11:40:32.281Z,99935.59
2022-08-28T11:43:16.165Z,99944.75
2022-08-28T11:45:50.645Z,99942.25
2022-08-28T11:48:33.738Z,99941.50
2022-08-28T11:51:31.340Z,99937.04
2022-08-28T11:54:32.275Z,99938.01
2022-08-28T11:57:20.239Z,99938.50
2022-08-28T12:00:17.536Z,99934.70
2022-08-28T12:02:49.907Z,99936.96
2022-08-28T12:05:17.823Z,99933.12
2022-08-28T12:07:48.546Z,99933.77
2022-08-28T12:10:28.153Z,99934.05
2022-08-28T12:13:02.446Z,99937.11
2022-08-28T12:15:30.320Z,99937.25
2022-08-28T12:18:04.403Z,99933.23
2022-08-28T12:20:41.036Z,99933.94
2022-08-28T12:23:28.655Z,99934.30
2022-08-28T12:26:05.746Z,99935.95
2022-08-28T12:28:46.118Z,99934.08
2022-08-28T12:31:48.849Z,99928.36
2022-08-28T12:34:31.728Z,99929.05
2022-08-28T12:37:02.755Z,99928.04
2022-08-28T12:39:32.624Z,99927.69
2022-08-28T12:42:03.550Z,99924.72
2022-08-28T12:44:33.583Z,99920.13
2022-08-28T12:47:01.461Z,99916.00
2022-08-28T12:49:36.035Z,99913.72
2022-08-28T12:52:22.870Z,99914.09
2022-08-28T12:54:55.264Z,99911.84
2022-08-28T12:57:25.491Z,99906.98
2022-08-28T12:59:56.006Z,99905.40
2022-08-28T13:02:36.116Z,99902.33
2022-08-28T13:05:29.194Z,99900.00
2022-08-28T13:08:00.096Z,99897.52
2022-08-28T13:10:33.426Z,99892.85
2022-08-28T13:13:06.567Z,99889.96
2022-08-28T13:15:55.306Z,99887.80
2022-08-28T13:19:08.690Z,99886.23
2022-08-28T13:21:52.171Z,99884.73
2022-08-28T13:24:27.533Z,99882.35
2022-08-28T13:27:04.025Z,99880.10
2022-08-28T13:29:32.432Z,99876.38
2022-08-28T13:32:07.769Z,99873.98
2022-08-28T13:34:37.870Z,99872.20
2022-08-28T13:37:14.608Z,99869.69
2022-08-28T13:39:48.015Z,99873.20
2022-08-28T13:42:18.061Z,99871.30
2022-08-28T13:44:56.174Z,99873.16
2022-08-28T13:47:24.030Z,99869.70
2022-08-28T13:49:51.871Z,99870.04
2022-08-28T13:52:19.647Z,99872.15
2022-08-28T13:54:47.845Z,99873.16
2022-08-28T13:57:15.681Z,99875.06
2022-08-28T13:59:43.634Z,99877.81
2022-08-28T14:02:32.746Z,99873.27
2022-08-28T14:05:00.746Z,99873.17
2022-08-28T14:07:29.461Z,99867.73
2022-08-28T14:09:57.514Z,99868.08
2022-08-28T14:12:32.796Z,99859.41
2022-08-28T14:15:02.453Z,99862.66
2022-08-28T14:17:30.373Z,99863.60
2022-08-28T14:20:00.381Z,99865.73
2022-08-28T14:22:28.681Z,99863.48
2022-08-28T14:24:56.921Z,99861.40
2022-08-28T14:27:24.669Z,99863.83
2022-08-28T14:29:53.631Z,99861.92
2022-08-28T14:32:21.427Z,99861.04
2022-08-28T14:34:50.805Z,99867.89
2022-08-28T14:37:19.385Z,99864.14
2022-08-28T14:39:48.072Z,99859.31
2022-08-28T14:42:16.041Z,99866.90
2022-08-28T14:44:43.869Z,99871.01
2022-08-28T14:47:12.358Z,99873.27
2022-08-28T14:49:40.823Z,99874.14
2022-08-28T14:52:08.649Z,99874.34
2022-08-28T14:54:37.344Z,99873.75
2022-08-28T14:57:05.471Z,99873.51
2022-08-28T14:59:34.105Z,99878.02
2022-08-28T15:02:02.196Z,99882.45
2022-08-28T15:04:37.819Z,99882.35
2022-08-28T15:07:10.546Z,99881.71
2022-08-28T15:09:41.187Z,99885.60
2022-08-28T15:12:09.344Z,99888.04
2022-08-28T15:14:37.661Z,99892.31
2022-08-28T15:17:05.984Z,99893.89
2022-08-28T15:19:34.427Z,99894.05
2022-08-28T15:22:04.242Z,99895.20
2022-08-28T15:24:34.439Z,99901.27
2022-08-28T15:27:02.793Z,99905.11
2022-08-28T15:29:30.618Z,99905.98
2022-08-28T15:31:59.134Z,99905.13
2022-08-28T15:34:28.641Z,99907.05
2022-08-28T15:36:58.030Z,99900.32
2022-08-28T15:39:46.661Z,99897.96
2022-08-28T15:42:15.455Z,99893.08
2022-08-28T15:44:44.164Z,99892.20
2022-08-28T15:47:13.836Z,99881.80
2022-08-28T15:49:47.511Z,99886.73
2022-08-28T15:52:20.039Z,99882.77
2022-08-28T15:54:49.826Z,99888.44
2022-08-28T15:57:17.993Z,99890.09
2022-08-28T15:59:49.923Z,99889.20
2022-08-28T16:02:21.980Z,99888.86
2022-08-28T16:04:50.755Z,99887.40
2022-08-28T16:07:20.151Z,99889.77
2022-08-28T16:09:49.030Z,99890.55
2022-08-28T16:12:17.424Z,99887.49
2022-08-28T16:14:45.368Z,99890.23
2022-08-28T16:17:13.384Z,99896.21
2022-08-28T16:19:43.114Z,99902.09
2022-08-28T16:22:12.571Z,99908.88
2022-08-28T16:24:40.333Z,99911.38
2022-08-28T16:27:13.115Z,99914.88
2022-08-28T16:29:46.653Z,99915.55
2022-08-28T16:32:17.764Z,99913.95
2022-08-28T16:34:45.837Z,99913.91
2022-08-28T16:37:16.635Z,99915.02
2022-08-28T16:39:48.875Z,99918.45
2022-08-28T16:42:17.504Z,99918.84
2022-08-28T16:44:45.843Z,99917.34
2022-08-28T16:47:14.073Z,99914.89
2022-08-28T16:49:41.895Z,99919.89
2022-08-28T16:52:09.654Z,99924.70
2022-08-28T16:54:37.691Z,99922.89
2022-08-28T16:57:14.011Z,99923.66
2022-08-28T16:59:41.773Z,99924.59
2022-08-28T17:02:10.006Z,99925.49
2022-08-28T17:04:41.524Z,99926.42
2022-08-28T17:07:09.594Z,99924.17
2022-08-28T17:09:37.436Z,99929.69
2022-08-28T17:12:05.576Z,99934.92
2022-08-28T17:14:34.324Z,99945.54
2022-08-28T17:17:02.102Z,99960.73
2022-08-28T17:19:30.378Z,99966.58
2022-08-28T17:22:16.996Z,99974.63
2022-08-28T17:24:44.753Z,99992.28
2022-08-28T17:27:16.869Z,99996.80
2022-08-28T17:29:50.731Z,100004.04
2022-08-28T17:32:18.854Z,100013.67
2022-08-28T17:34:46.954Z,100021.17
2022-08-28T17:37:15.863Z,100025.94
2022-08-28T17:39:43.737Z,100033.27
2022-08-28T17:42:11.609Z,100040.73
2022-08-28T17:44:39.557Z,100041.46
2022-08-28T17:47:07.313Z,100047.89
2022-08-28T17:49:35.345Z,100049.29
2022-08-28T17:52:03.957Z,100048.61
2022-08-28T17:54:32.295Z,100050.02
2022-08-28T17:57:00.268Z,100055.56
2022-08-28T17:59:28.072Z,100052.09
2022-08-28T18:01:56.083Z,100052.04
2022-08-28T18:04:24.819Z,100051.74
2022-08-28T18:06:54.738Z,100045.40
2022-08-28T18:09:25.008Z,100041.22
2022-08-28T18:11:52.909Z,100039.40
2022-08-28T18:14:21.628Z,100047.19
2022-08-28T18:16:50.219Z,100051.27
2022-08-28T18:19:18.217Z,100054.39
2022-08-28T18:21:47.222Z,100050.73
2022-08-28T18:24:15.119Z,100040.91
2022-08-28T18:26:43.864Z,100041.76
2022-08-28T18:29:13.729Z,100043.23
2022-08-28T18:31:42.552Z,100037.84
2022-08-28T18:34:11.001Z,100033.52
2022-08-28T18:36:43.604Z,100039.79
2022-08-28T18:39:11.576Z,100036.92
2022-08-28T18:41:43.822Z,100040.84
2022-08-28T18:44:14.402Z,100042.11
2022-08-28T18:46:43.319Z,100037.31
2022-08-28T18:49:12.126Z,100039.69
2022-08-28T18:51:41.977Z,100034.58
2022-08-28T18:54:13.880Z,100037.45
2022-08-28T18:56:46.108Z,100042.42
2022-08-28T18:59:16.190Z,100042.84
2022-08-28T19:01:44.206Z,100038.90
2022-08-28T19:04:12.152Z,100038.10
2022-08-28T19:06:40.751Z,100038.79
2022-08-28T19:09:08.766Z,100034.54
2022-08-28T19:11:39.618Z,100036.14
2022-08-28T19:14:07.758Z,100037.46
2022-08-28T19:16:35.622Z,100039.65
2022-08-28T19:19:03.900Z,100035.13
2022-08-28T19:21:32.896Z,100037.19
2022-08-28T19:24:00.929Z,100032.64
2022-08-28T19:26:28.798Z,100029.20
2022-08-28T19:28:57.491Z,100029.91
2022-08-28T19:31:27.262Z,100029.02
2022-08-28T19:33:56.178Z,100029.77
2022-08-28T19:36:27.230Z,100033.29
2022-08-28T19:38:55.178Z,100030.27
2022-08-28T19:41:23.141Z,100028.42
2022-08-28T19:43:51.382Z,100028.51
2022-08-28T19:46:20.301Z,100026.59
2022-08-28T19:48:50.394Z,100024.20
2022-08-28T19:51:22.654Z,100023.90
2022-08-28T19:53:57.793Z,100022.64
2022-08-28T19:56:28.831Z,100022.98
2022-08-28T19:58:59.419Z,100021.67
2022-08-28T20:01:30.263Z,100020.77
2022-08-28T20:03:59.846Z,100021.40
2022-08-28T20:06:31.099Z,100018.73
2022-08-28T20:09:02.664Z,100017.30
2022-08-28T20:11:31.010Z,100013.26
2022-08-28T20:14:04.416Z,100014.27
2022-08-28T20:16:36.692Z,100010.55
2022-08-28T20:19:07.836Z,100006.77
2022-08-28T20:21:38.425Z,100005.21
2022-08-28T20:24:11.034Z,100004.49
2022-08-28T20:26:39.310Z,100009.23
2022-08-28T20:29:08.680Z,100010.27
2022-08-28T20:31:42.222Z,100010.09
2022-08-28T20:34:11.722Z,100007.84
2022-08-28T20:36:39.880Z,100009.67
2022-08-28T20:39:09.521Z,100011.05
2022-08-28T20:41:40.168Z,100008.43
2022-08-28T20:44:10.282Z,100004.13
2022-08-28T20:46:41.330Z,100006.04
2022-08-28T20:49:14.455Z,100004.38
2022-08-28T20:51:53.835Z,100003.81
2022-08-28T20:54:34.664Z,99997.10
2022-08-28T20:57:08.784Z,99991.02
2022-08-28T20:59:39.983Z,99990.71
2022-08-28T21:02:24.408Z,99991.75
2022-08-28T21:04:53.428Z,99998.50
2022-08-28T21:07:24.073Z,99996.06
2022-08-28T21:10:04.848Z,99996.50
2022-08-28T21:12:39.242Z,99991.52
2022-08-28T21:15:10.935Z,99994.00
2022-08-28T21:17:40.265Z,99991.77
2022-08-28T21:20:12.206Z,100002.64
2022-08-28T21:22:41.232Z,100004.29
2022-08-28T21:25:10.757Z,100011.88
2022-08-28T21:27:39.684Z,100017.94
2022-08-28T21:30:09.682Z,100023.31
2022-08-28T21:32:37.647Z,100024.14
2022-08-28T21:35:07.463Z,100026.99
2022-08-28T21:37:35.605Z,100027.88
2022-08-28T21:40:06.599Z,100030.92
2022-08-28T21:42:35.838Z,100041.08
2022-08-28T21:45:09.835Z,100046.98
2022-08-28T21:47:41.737Z,100049.88
2022-08-28T21:50:10.893Z,100053.94
2022-08-28T21:52:40.228Z,100065.00
2022-08-28T21:55:12.273Z,100069.29
2022-08-28T21:57:40.768Z,100075.69
2022-08-28T22:00:21.550Z,100073.20
2022-08-28T22:02:50.442Z,100076.35
2022-08-28T22:05:18.606Z,100074.36
2022-08-28T22:07:46.990Z,100076.67
2022-08-28T22:10:15.134Z,100072.57
2022-08-28T22:12:43.038Z,100076.08
2022-08-28T22:15:11.042Z,100074.39
2022-08-28T22:17:38.885Z,100074.51
2022-08-28T22:20:07.394Z,100076.54
2022-08-28T22:22:53.904Z,100073.78
2022-08-28T22:25:21.858Z,100080.46
2022-08-28T22:27:49.696Z,100078.76
2022-08-28T22:30:17.827Z,100078.70
2022-08-28T22:32:46.110Z,100078.07
2022-08-28T22:35:14.138Z,100079.95
2022-08-28T22:37:41.990Z,100081.52
2022-08-28T22:40:13.521Z,100082.40
2022-08-28T22:42:42.637Z,100087.42
2022-08-28T22:45:10.933Z,100088.90
2022-08-28T22:47:39.777Z,100083.55
2022-08-28T22:50:08.518Z,100079.29
2022-08-28T22:52:37.362Z,100082.39
2022-08-28T22:55:09.257Z,100079.33
2022-08-28T22:57:37.069Z,100071.69
2022-08-28T23:00:15.582Z,100070.95
2022-08-28T23:02:44.103Z,100068.36
2022-08-28T23:05:12.020Z,100067.52
2022-08-28T23:07:40.456Z,100076.84
2022-08-28T23:10:09.491Z,100090.19
2022-08-28T23:12:37.686Z,100100.97
2022-08-28T23:15:10.310Z,100109.27
2022-08-28T23:17:38.362Z,100113.31
2022-08-28T23:20:11.381Z,100117.55
2022-08-28T23:22:39.858Z,100110.93
2022-08-28T23:25:08.677Z,100101.95
2022-08-28T23:27:36.905Z,100093.83
2022-08-28T23:30:07.406Z,100087.91
2022-08-28T23:32:35.645Z,100081.92
2022-08-28T23:35:07.263Z,100077.02
2022-08-28T23:37:37.442Z,100074.40
2022-08-28T23:40:14.033Z,100074.68
2022-08-28T23:42:42.118Z,100067.05
2022-08-28T23:45:11.802Z,100067.38
2022-08-28T23:47:40.733Z,100066.77
2022-08-28T23:50:12.448Z,100073.58
2022-08-28T23:52:40.620Z,100069.19
2022-08-28T23:55:09.538Z,100066.94
2022-08-28T23:57:37.929Z,100066.90
